Погода Санта-Моникана неделю

Калифорния, США

01 - 07 сентября
  • 01сентября
    Сегодня
    +17°
    +24°
    Ясно и безоблачно
    ВремяПогодаТемператураВлажностьДавлениеВетер, м/сВероятность осадков
    02:00Ясно и безоблачно+18°C82 %758 мм0.7 м/с2 %
    05:00Ясно и безоблачно+17°C87 %758 мм0.5 м/с2 %
    08:00Ясно и безоблачно+20°C79 %759 мм0.7 м/с2 %
    11:00Ясно и безоблачно+23°C65 %759 мм3.7 м/с2 %
    14:00Ясно и безоблачно+24°C58 %759 мм4.3 м/с2 %
    17:00Ясно и безоблачно+23°C59 %757 мм4.3 м/с2 %
    20:00Ясно и безоблачно+20°C69 %757 мм2.9 м/с2 %
    23:00Ясно и безоблачно+19°C72 %759 мм1.4 м/с2 %
  • 02сентября
    Среда
    +18°
    +25°
    Ясно и безоблачно
    ВремяПогодаТемператураВлажностьДавлениеВетер, м/сВероятность осадков
    02:00Ясно и безоблачно+18°C77 %759 мм0.3 м/с2 %
    05:00Ясно и безоблачно+17°C82 %759 мм0.3 м/с2 %
    08:00Ясно и безоблачно+19°C74 %759 мм0.8 м/с2 %
    11:00Ясно и безоблачно+23°C60 %759 мм3.6 м/с2 %
    14:00Ясно и безоблачно+24°C53 %759 мм4.2 м/с2 %
    17:00Ясно и безоблачно+24°C59 %757 мм4.2 м/с2 %
    20:00Ясно и безоблачно+21°C61 %757 мм3.0 м/с2 %
    23:00Ясно и безоблачно+20°C70 %758 мм1.5 м/с2 %
  • 03сентября
    Четверг
    +18°
    +25°
    Ясно и безоблачно
    ВремяПогодаТемператураВлажностьДавлениеВетер, м/сВероятность осадков
    02:00Ясно и безоблачно+19°C81 %758 мм0.5 м/с2 %
    05:00Ясно и безоблачно+18°C86 %757 мм0.5 м/с2 %
    08:00Ясно и безоблачно+20°C77 %758 мм1.3 м/с2 %
    11:00Ясно и безоблачно+24°C56 %758 мм3.6 м/с2 %
    14:00Ясно и безоблачно+25°C58 %756 мм4.3 м/с2 %
    17:00Ясно и безоблачно+24°C67 %756 мм4.2 м/с2 %
    20:00Ясно и безоблачно+21°C68 %755 мм3.1 м/с2 %
    23:00Ясно и безоблачно+20°C76 %756 мм1.6 м/с2 %
  • 04сентября
    Пятница
    +18°
    +26°
    Ясно и безоблачно
    ВремяПогодаТемператураВлажностьДавлениеВетер, м/сВероятность осадков
    02:00Практически безоблачно+18°C86 %756 мм0.5 м/с2 %
    05:00Ясно и безоблачно+18°C85 %756 мм0.5 м/с2 %
    08:00Ясно и безоблачно+20°C78 %757 мм0.6 м/с2 %
    11:00Ясно и безоблачно+24°C58 %757 мм3.5 м/с2 %
    14:00Ясно и безоблачно+26°C57 %756 мм4.3 м/с2 %
    17:00Ясно и безоблачно+24°C64 %756 мм4.1 м/с2 %
    20:00Ясно и безоблачно+21°C79 %756 мм2.5 м/с2 %
    23:00Ясно и безоблачно+20°C80 %757 мм1.2 м/с2 %
  • 05сентября
    Суббота
    +20°
    +27°
    Ясно и безоблачно
    ВремяПогодаТемператураВлажностьДавлениеВетер, м/сВероятность осадков
    02:00Ясно и безоблачно+19°C83 %757 мм0.3 м/с2 %
    05:00Ясно и безоблачно+18°C82 %756 мм0.0 м/с4 %
    08:00Ясно и безоблачно+21°C70 %758 мм0.2 м/с8 %
    11:00Ясно и безоблачно+26°C51 %758 мм3.4 м/с13 %
    14:00Ясно и безоблачно+26°C52 %757 мм4.0 м/с16 %
    17:00Ясно и безоблачно+25°C55 %756 мм3.9 м/с10 %
    20:00Ясно и безоблачно+22°C73 %756 мм2.5 м/с12 %
    23:00Ясно и безоблачно+22°C74 %757 мм1.1 м/с19 %
  • 06сентября
    Воскресенье
    +19°
    +28°
    Ясно и безоблачно
    ВремяПогодаТемператураВлажностьДавлениеВетер, м/сВероятность осадков
    05:00Ясно и безоблачно+20°C74 %756 мм0.2 м/с30 %
    11:00Ясно и безоблачно+25°C67 %757 мм2.7 м/с36 %
    17:00Ясно и безоблачно+27°C60 %756 мм2.8 м/с33 %
    23:00Ясно и безоблачно+21°C66 %756 мм2.0 м/с25 %
  • 07сентября
    Понедельник
    +18°
    +26°
    Ясно и безоблачно
    ВремяПогодаТемператураВлажностьДавлениеВетер, м/сВероятность осадков
    05:00Ясно и безоблачно+19°C76 %756 мм1.8 м/с20 %
    11:00Ясно и безоблачно+25°C49 %757 мм2.1 м/с24 %
    17:00Ясно и безоблачно+25°C46 %755 мм3.6 м/с20 %
    23:00Ясно и безоблачно+20°C72 %756 мм1.7 м/с14 %
Мы используем cookies
Соглашаюсь